createdAt,value
2023-06-30T00:15:11.063Z,3.214
2023-06-30T00:30:53.789Z,3.214
2023-06-30T00:46:35.814Z,3.214
2023-06-30T01:02:18.578Z,3.214
2023-06-30T01:18:01.348Z,3.214
2023-06-30T01:33:44.110Z,3.216
2023-06-30T01:49:26.891Z,3.223
2023-06-30T02:05:09.405Z,3.223
2023-06-30T02:20:52.193Z,3.223
2023-06-30T02:36:34.333Z,3.223
2023-06-30T02:52:16.533Z,3.223
2023-06-30T03:07:59.630Z,3.224
2023-06-30T03:23:42.592Z,3.224
2023-06-30T03:39:25.190Z,3.224
2023-06-30T03:55:07.367Z,3.225
2023-06-30T04:10:50.282Z,3.225
2023-06-30T04:26:33.284Z,3.227
2023-06-30T04:42:15.858Z,3.229
2023-06-30T04:57:58.521Z,3.236
2023-06-30T05:13:40.779Z,3.239
2023-06-30T05:29:23.533Z,3.242
2023-06-30T05:45:06.326Z,3.253
2023-06-30T06:00:48.964Z,3.261
2023-06-30T06:16:31.703Z,3.336
2023-06-30T06:32:13.793Z,3.299
2023-06-30T06:47:56.305Z,3.286
2023-06-30T07:03:38.842Z,3.278
2023-06-30T07:19:21.263Z,3.271
2023-06-30T07:35:03.579Z,3.267
2023-06-30T07:50:45.629Z,3.26
2023-06-30T08:06:28.234Z,3.257
2023-06-30T08:22:11.218Z,3.335
2023-06-30T08:37:53.352Z,3.304
2023-06-30T08:53:35.138Z,3.294
2023-06-30T09:09:17.433Z,3.288
2023-06-30T09:25:00.053Z,3.279
2023-06-30T09:40:42.793Z,3.274
2023-06-30T09:56:25.092Z,3.268
2023-06-30T10:12:07.528Z,3.263
2023-06-30T10:27:50.302Z,3.259
2023-06-30T10:43:33.192Z,3.254
2023-06-30T10:59:15.092Z,3.333
2023-06-30T11:14:57.298Z,3.451
2023-06-30T11:30:39.337Z,3.422
2023-06-30T11:46:21.277Z,3.402
2023-06-30T12:02:03.693Z,3.384
2023-06-30T12:17:45.941Z,3.369
2023-06-30T12:33:28.489Z,3.357
2023-06-30T12:49:10.969Z,3.343
2023-06-30T13:04:53.340Z,3.332
2023-06-30T13:20:36.137Z,3.31
2023-06-30T13:36:18.156Z,3.301
2023-06-30T13:52:00.272Z,3.293
2023-06-30T14:07:42.308Z,3.285
2023-06-30T14:23:25.175Z,3.278
2023-06-30T14:39:07.795Z,3.272
2023-06-30T14:54:50.748Z,3.267
2023-06-30T15:10:32.625Z,3.261
2023-06-30T15:26:15.403Z,3.257
2023-06-30T15:41:57.635Z,3.253
2023-06-30T15:57:39.639Z,3.308
2023-06-30T16:13:21.837Z,3.3
2023-06-30T16:29:04.283Z,3.292
2023-06-30T16:44:46.257Z,3.285
2023-06-30T17:00:29.082Z,3.276
2023-06-30T17:16:11.268Z,3.27
2023-06-30T17:31:54.201Z,3.265
2023-06-30T17:47:36.606Z,3.261
2023-06-30T18:03:19.202Z,3.257
2023-06-30T18:19:01.450Z,3.256
2023-06-30T18:34:44.120Z,3.25
2023-06-30T18:50:27.039Z,3.247
2023-06-30T19:06:09.373Z,3.245
2023-06-30T19:21:52.265Z,3.242
2023-06-30T19:37:34.604Z,3.239
2023-06-30T19:53:17.435Z,3.236
2023-06-30T20:24:42.797Z,3.234
2023-06-30T20:40:25.733Z,3.235
2023-06-30T20:41:12.823Z,3.228
2023-06-30T20:56:55.303Z,3.229
2023-06-30T21:12:38.361Z,3.228
2023-06-30T21:28:20.535Z,3.227
2023-06-30T21:44:03.020Z,3.227
2023-06-30T21:59:45.545Z,3.225
2023-06-30T22:15:27.800Z,3.225
2023-06-30T22:31:09.788Z,3.225
2023-06-30T22:46:51.740Z,3.224
2023-06-30T23:02:33.774Z,3.224
2023-06-30T23:18:16.230Z,3.224
2023-06-30T23:33:58.787Z,3.224
2023-06-30T23:49:41.184Z,3.223
